Archival Weather

Luke Afb

Glendale, Arizona (KLUF)

Report from: Friday, April 19, 2024 5:55 AM MST
Current time: Monday, June 24, 2024 4:34 AM MST

Current weather – Weather history – Daily summaries
Weather forecast

Temperature15.2°C (59.4°F)
Dew point-0.6°C (30.9°F)
Winds 5 kts (2.6 m/s, 5.8 mph) North (350°)
Visibility10 mi. (16.1 km)
Clouds Sky clear
Altimeter29.83 in.Hg (1010 mB)
Relative humidity34 %
Density altitude252 ft. (77 m)
Sea-level pressure100.9 kPa (1009 mB, 29.80 in.Hg)
Remarks Fully automated report
System requires maintenance
Automated weather observing station with precipitation discriminator
Flight conditions Visual Meteorological Conditions
Raw dataKLUF 191255Z AUTO 35005KT 10SM CLR 15/M01 A2983 RMK AO2 SLP092 T01521006 $
An error has occurred. This application may no longer respond until reloaded. Reload 🗙